createdAt,value
2019-05-09T00:00:44.001Z,9.74
2019-05-09T00:01:43.959Z,9.63
2019-05-09T00:02:44.196Z,9.63
2019-05-09T00:03:44.349Z,9.70
2019-05-09T00:04:44.099Z,9.56
2019-05-09T00:05:44.219Z,9.67
2019-05-09T00:06:43.523Z,9.63
2019-05-09T00:07:44.019Z,9.65
2019-05-09T00:08:44.335Z,9.71
2019-05-09T00:09:44.130Z,9.70
2019-05-09T00:10:45.043Z,9.63
2019-05-09T00:11:44.028Z,9.59
2019-05-09T00:12:43.801Z,9.70
2019-05-09T00:13:43.667Z,9.56
2019-05-09T00:14:43.529Z,9.59
2019-05-09T00:15:43.817Z,9.62
2019-05-09T00:16:44.016Z,9.62
2019-05-09T00:17:43.966Z,9.55
2019-05-09T00:18:44.149Z,9.50
2019-05-09T00:19:43.963Z,9.59
2019-05-09T00:20:43.673Z,9.53
2019-05-09T00:21:43.775Z,9.53
2019-05-09T00:22:43.616Z,9.55
2019-05-09T00:23:43.804Z,9.53
2019-05-09T00:24:44.774Z,9.56
2019-05-09T00:25:43.488Z,9.56
2019-05-09T00:26:44.276Z,9.55
2019-05-09T00:27:43.579Z,9.58
2019-05-09T00:28:44.091Z,9.58
2019-05-09T00:29:43.878Z,9.53
2019-05-09T00:30:43.736Z,9.53
2019-05-09T00:31:43.825Z,9.67
2019-05-09T00:32:43.277Z,9.63
2019-05-09T00:33:44.397Z,9.60
2019-05-09T00:34:44.155Z,9.65
2019-05-09T00:35:44.254Z,9.70
2019-05-09T00:36:43.775Z,9.62
2019-05-09T00:37:43.300Z,9.62
2019-05-09T00:38:43.529Z,9.67
2019-05-09T00:39:43.514Z,9.60
2019-05-09T00:40:55.002Z,9.67
2019-05-09T00:41:44.139Z,9.75
2019-05-09T00:42:44.058Z,9.77
2019-05-09T00:43:43.651Z,9.85
2019-05-09T00:44:43.187Z,9.75
2019-05-09T00:45:43.898Z,9.86
2019-05-09T00:46:43.196Z,9.83
2019-05-09T00:47:43.425Z,9.89
2019-05-09T00:48:43.880Z,9.89
2019-05-09T00:49:43.513Z,9.88
2019-05-09T00:50:43.777Z,9.92
2019-05-09T00:51:43.735Z,9.91
2019-05-09T00:52:43.130Z,9.93
2019-05-09T00:53:44.383Z,9.96
2019-05-09T00:54:43.762Z,9.96
2019-05-09T00:55:43.668Z,9.96
2019-05-09T00:56:43.614Z,10.07
2019-05-09T00:57:43.974Z,9.96
2019-05-09T00:58:44.077Z,9.92
2019-05-09T00:59:44.627Z,10.02
2019-05-09T01:00:43.898Z,10.02
2019-05-09T01:01:43.722Z,10.06
2019-05-09T01:02:43.514Z,10.06
2019-05-09T01:03:43.299Z,10.06
2019-05-09T01:04:43.809Z,10.14
2019-05-09T01:05:43.655Z,10.14
2019-05-09T01:06:43.518Z,10.11
2019-05-09T01:07:43.151Z,10.14
2019-05-09T01:08:44.194Z,10.14
2019-05-09T01:09:43.966Z,10.13
2019-05-09T01:10:43.613Z,10.13
2019-05-09T01:11:44.029Z,10.14
2019-05-09T01:12:43.556Z,10.10
2019-05-09T01:13:43.473Z,10.16
2019-05-09T01:14:43.331Z,10.13
2019-05-09T01:15:44.010Z,10.18
2019-05-09T01:16:44.006Z,10.20
2019-05-09T01:17:44.163Z,10.22
2019-05-09T01:18:43.749Z,10.25
2019-05-09T01:19:43.324Z,10.25
2019-05-09T01:20:44.073Z,10.24
2019-05-09T01:21:43.847Z,10.25
2019-05-09T01:22:43.629Z,10.25
2019-05-09T01:23:43.611Z,10.24
2019-05-09T01:24:44.285Z,10.34
2019-05-09T01:25:43.596Z,10.28
2019-05-09T01:26:43.558Z,10.29
2019-05-09T01:27:43.244Z,10.22
2019-05-09T01:28:44.224Z,10.36
2019-05-09T01:29:43.955Z,10.28
2019-05-09T01:30:43.803Z,10.35
2019-05-09T01:31:43.626Z,10.34
2019-05-09T01:32:43.322Z,10.36
2019-05-09T01:33:43.908Z,10.39
2019-05-09T01:34:43.699Z,10.34
2019-05-09T01:35:43.391Z,10.34
2019-05-09T01:36:43.395Z,10.29
2019-05-09T01:37:43.402Z,10.29
2019-05-09T01:38:43.265Z,10.36
2019-05-09T01:39:44.050Z,10.28
2019-05-09T01:40:43.865Z,10.34
2019-05-09T01:41:43.623Z,10.28
2019-05-09T01:42:43.263Z,10.32
2019-05-09T01:43:44.309Z,10.31
2019-05-09T01:44:44.019Z,10.22
2019-05-09T01:45:43.173Z,10.34
2019-05-09T01:46:43.601Z,10.31
2019-05-09T01:47:43.060Z,10.25
2019-05-09T01:48:43.145Z,10.25
2019-05-09T01:49:43.147Z,10.26
2019-05-09T01:50:43.112Z,10.20
2019-05-09T01:51:44.362Z,10.28
2019-05-09T01:52:43.877Z,10.25
2019-05-09T01:53:43.748Z,10.16
2019-05-09T01:54:43.558Z,10.14
2019-05-09T01:55:43.212Z,10.17
2019-05-09T01:56:43.094Z,10.09
2019-05-09T01:57:45.715Z,10.14
2019-05-09T01:58:43.315Z,10.11
2019-05-09T01:59:44.194Z,10.13
2019-05-09T02:00:43.595Z,10.07
2019-05-09T02:01:43.408Z,10.07
2019-05-09T02:02:43.347Z,10.02
2019-05-09T02:03:44.331Z,10.01
2019-05-09T02:04:43.941Z,9.96
2019-05-09T02:05:43.459Z,9.91
2019-05-09T02:06:44.016Z,9.91
2019-05-09T02:07:43.811Z,9.91
2019-05-09T02:08:43.835Z,9.88
2019-05-09T02:09:43.429Z,9.92
2019-05-09T02:10:44.057Z,9.77
2019-05-09T02:11:44.968Z,9.88
2019-05-09T02:12:43.045Z,9.80
2019-05-09T02:13:44.087Z,9.78
2019-05-09T02:14:43.746Z,9.83
2019-05-09T02:15:43.464Z,9.77
2019-05-09T02:16:43.249Z,9.78
2019-05-09T02:17:57.345Z,9.67
2019-05-09T02:18:44.084Z,9.63
2019-05-09T02:19:43.933Z,9.74
2019-05-09T02:20:43.858Z,9.63
2019-05-09T02:21:43.750Z,9.62
2019-05-09T02:22:43.506Z,9.67
2019-05-09T02:23:43.188Z,9.65
2019-05-09T02:24:44.013Z,9.65
2019-05-09T02:25:43.820Z,9.59
2019-05-09T02:26:43.889Z,9.63
2019-05-09T02:27:43.659Z,9.75
2019-05-09T02:28:43.273Z,9.77
2019-05-09T02:29:43.480Z,9.75
2019-05-09T02:30:44.983Z,9.77
2019-05-09T02:31:44.659Z,9.73
2019-05-09T02:32:44.742Z,9.77
2019-05-09T02:33:45.149Z,9.77
2019-05-09T02:34:44.258Z,9.78
2019-05-09T02:35:52.862Z,9.80
2019-05-09T02:36:42.916Z,9.80
2019-05-09T02:37:41.907Z,9.89
2019-05-09T02:38:41.882Z,9.80
2019-05-09T02:39:41.885Z,9.74
2019-05-09T02:40:41.874Z,9.80
2019-05-09T02:41:59.662Z,9.86
2019-05-09T02:42:42.848Z,9.85
2019-05-09T02:43:41.830Z,9.81
2019-05-09T02:44:41.818Z,9.75
2019-05-09T02:45:41.804Z,9.85
2019-05-09T02:46:41.814Z,9.71
2019-05-09T02:47:41.787Z,9.80
2019-05-09T02:48:41.784Z,9.75
2019-05-09T02:49:41.762Z,9.71
2019-05-09T02:50:41.755Z,9.80
2019-05-09T02:51:41.751Z,9.75
2019-05-09T02:52:41.742Z,9.75
2019-05-09T02:53:41.727Z,9.63
2019-05-09T02:54:41.720Z,9.63
2019-05-09T02:55:41.698Z,9.63
2019-05-09T02:56:41.703Z,9.65
2019-05-09T02:57:41.674Z,9.58
2019-05-09T02:58:41.666Z,9.52
2019-05-09T02:59:41.666Z,9.56
2019-05-09T03:00:41.645Z,9.58
2019-05-09T03:01:41.648Z,9.52
2019-05-09T03:02:41.626Z,9.52
2019-05-09T03:03:41.614Z,9.45
2019-05-09T03:04:41.605Z,9.44
2019-05-09T03:05:41.589Z,9.49
2019-05-09T03:06:41.629Z,9.48
2019-05-09T03:07:41.568Z,9.41
2019-05-09T03:08:41.563Z,9.41
2019-05-09T03:09:41.550Z,9.41
2019-05-09T03:10:41.535Z,9.44
2019-05-09T03:11:41.540Z,9.32
2019-05-09T03:12:41.522Z,9.37
2019-05-09T03:13:41.504Z,9.35
2019-05-09T03:14:41.500Z,9.31
2019-05-09T03:15:41.488Z,9.31
2019-05-09T03:16:41.779Z,9.38
2019-05-09T03:17:41.460Z,9.23
2019-05-09T03:18:41.459Z,9.31
2019-05-09T03:19:41.448Z,9.30
2019-05-09T03:20:41.427Z,9.27
2019-05-09T03:21:41.418Z,9.26
2019-05-09T03:22:41.410Z,9.22
2019-05-09T03:23:41.398Z,9.26
2019-05-09T03:24:41.388Z,9.27
2019-05-09T03:25:41.392Z,9.30
2019-05-09T03:26:41.370Z,9.27
2019-05-09T03:27:41.356Z,9.23
2019-05-09T03:28:41.340Z,9.31
2019-05-09T03:29:41.341Z,9.34
2019-05-09T03:30:41.321Z,9.38
2019-05-09T03:31:41.315Z,9.35
2019-05-09T03:32:41.309Z,9.34
2019-05-09T03:33:41.286Z,9.27
2019-05-09T03:34:41.281Z,9.37
2019-05-09T03:35:41.267Z,9.35
2019-05-09T03:36:41.254Z,9.35
2019-05-09T03:37:41.245Z,9.35
2019-05-09T03:38:41.231Z,9.32
2019-05-09T03:39:41.222Z,9.37
2019-05-09T03:40:41.215Z,9.26
2019-05-09T03:41:41.226Z,9.37
2019-05-09T03:42:43.730Z,9.38
2019-05-09T03:43:41.180Z,9.34
2019-05-09T03:44:41.168Z,9.31
2019-05-09T03:45:41.160Z,9.22
2019-05-09T03:46:41.146Z,9.27
2019-05-09T03:47:41.149Z,9.30
2019-05-09T03:48:41.124Z,9.32
2019-05-09T03:49:41.135Z,9.23
2019-05-09T03:50:41.101Z,9.24
2019-05-09T03:51:41.100Z,9.30
2019-05-09T03:52:41.091Z,9.23
2019-05-09T03:53:41.074Z,9.26
2019-05-09T03:54:41.097Z,9.24
2019-05-09T03:55:41.078Z,9.23
2019-05-09T03:56:41.037Z,9.27
2019-05-09T03:57:41.036Z,9.27
2019-05-09T03:58:41.028Z,9.30
2019-05-09T03:59:41.005Z,9.34
2019-05-09T04:00:40.995Z,9.24
2019-05-09T04:01:40.981Z,9.32
2019-05-09T04:02:40.996Z,9.26
2019-05-09T04:03:40.960Z,9.27
2019-05-09T04:04:40.951Z,9.31
2019-05-09T04:05:54.474Z,9.31
2019-05-09T04:06:41.934Z,9.31
2019-05-09T04:07:40.931Z,9.35
2019-05-09T04:08:41.174Z,9.27
2019-05-09T04:09:40.897Z,9.32
2019-05-09T04:10:40.884Z,9.38
2019-05-09T04:11:40.872Z,9.35
2019-05-09T04:12:52.847Z,9.31
2019-05-09T04:13:41.863Z,9.41
2019-05-09T04:14:40.851Z,9.49
2019-05-09T04:15:40.835Z,9.32
2019-05-09T04:16:40.818Z,9.32
2019-05-09T04:17:40.807Z,9.41
2019-05-09T04:18:40.907Z,9.41
2019-05-09T04:19:40.786Z,9.34
2019-05-09T04:20:40.786Z,9.38
2019-05-09T04:21:40.765Z,9.42
2019-05-09T04:22:40.766Z,9.35
2019-05-09T04:23:40.766Z,9.38
2019-05-09T04:24:40.731Z,9.41
2019-05-09T04:25:40.725Z,9.38
2019-05-09T04:26:40.713Z,9.37
2019-05-09T04:27:40.698Z,9.41
2019-05-09T04:28:40.698Z,9.32
2019-05-09T04:29:40.681Z,9.34
2019-05-09T04:30:40.682Z,9.38
2019-05-09T04:31:40.657Z,9.35
2019-05-09T04:32:40.652Z,9.38
2019-05-09T04:33:40.674Z,9.32
2019-05-09T04:34:40.633Z,9.40
2019-05-09T04:35:40.640Z,9.31
2019-05-09T04:36:40.610Z,9.35
2019-05-09T04:37:40.590Z,9.40
2019-05-09T04:38:40.604Z,9.34
2019-05-09T04:39:40.813Z,9.37
2019-05-09T04:40:44.727Z,9.31
2019-05-09T04:41:41.549Z,9.38
2019-05-09T04:42:44.346Z,9.37
2019-05-09T04:43:40.540Z,9.40
2019-05-09T04:44:40.513Z,9.42
2019-05-09T04:45:41.934Z,9.41
2019-05-09T04:46:40.498Z,9.44
2019-05-09T04:47:43.483Z,9.45
2019-05-09T04:48:40.493Z,9.30
2019-05-09T04:49:45.015Z,9.44
2019-05-09T04:50:40.447Z,9.44
2019-05-09T04:51:40.453Z,9.48
2019-05-09T04:52:40.429Z,9.55
2019-05-09T04:53:40.443Z,9.50
2019-05-09T04:54:40.405Z,9.59
2019-05-09T04:55:40.394Z,9.63
2019-05-09T04:56:40.386Z,9.60
2019-05-09T04:57:40.386Z,9.65
2019-05-09T04:58:40.398Z,9.65
2019-05-09T04:59:40.353Z,9.77
2019-05-09T05:00:40.341Z,9.75
2019-05-09T05:01:40.338Z,9.85
2019-05-09T05:02:40.318Z,9.89
2019-05-09T05:03:40.320Z,9.89
2019-05-09T05:04:40.302Z,9.80
2019-05-09T05:05:40.303Z,9.91
2019-05-09T05:06:40.642Z,9.92
2019-05-09T05:07:40.276Z,9.92
2019-05-09T05:08:40.286Z,10.07
2019-05-09T05:09:40.243Z,10.06
2019-05-09T05:10:40.232Z,10.09
2019-05-09T05:11:40.224Z,10.14
2019-05-09T05:12:40.212Z,10.20
2019-05-09T05:13:40.199Z,10.25
2019-05-09T05:14:40.202Z,10.25
2019-05-09T05:15:40.179Z,10.18
2019-05-09T05:16:40.177Z,10.29
2019-05-09T05:17:40.163Z,10.32
2019-05-09T05:18:40.147Z,10.29
2019-05-09T05:19:40.150Z,10.36
2019-05-09T05:20:40.124Z,10.25
2019-05-09T05:21:40.115Z,10.38
2019-05-09T05:22:40.108Z,10.35
2019-05-09T05:23:40.106Z,10.35
2019-05-09T05:24:40.098Z,10.34
2019-05-09T05:25:40.074Z,10.36
2019-05-09T05:26:40.060Z,10.42
2019-05-09T05:27:40.050Z,10.46
2019-05-09T05:28:40.038Z,10.36
2019-05-09T05:29:40.053Z,10.47
2019-05-09T05:30:40.025Z,10.49
2019-05-09T05:31:40.006Z,10.54
2019-05-09T05:32:39.999Z,10.47
2019-05-09T05:33:40.016Z,10.55
2019-05-09T05:34:39.988Z,10.54
2019-05-09T05:35:39.964Z,10.62
2019-05-09T05:36:39.955Z,10.66
2019-05-09T05:37:39.944Z,10.66
2019-05-09T05:38:39.934Z,10.73
2019-05-09T05:39:39.933Z,10.66
2019-05-09T05:40:45.518Z,10.70
2019-05-09T05:41:40.902Z,10.75
2019-05-09T05:42:39.901Z,10.84
2019-05-09T05:43:44.289Z,10.81
2019-05-09T05:44:39.879Z,10.83
2019-05-09T05:45:39.859Z,10.81
2019-05-09T05:46:39.845Z,10.90
2019-05-09T05:47:39.844Z,10.93
2019-05-09T05:48:39.825Z,10.99
2019-05-09T05:49:39.831Z,10.88
2019-05-09T05:50:39.807Z,10.98
2019-05-09T05:51:39.791Z,10.95
2019-05-09T05:52:39.780Z,10.98
2019-05-09T05:53:39.774Z,11.01
2019-05-09T05:54:39.951Z,11.02
2019-05-09T05:55:39.749Z,11.06
2019-05-09T05:56:39.737Z,11.03
2019-05-09T05:57:39.729Z,11.06
2019-05-09T05:58:39.722Z,11.05
2019-05-09T05:59:41.001Z,11.08
2019-05-09T06:00:39.708Z,11.13
2019-05-09T06:01:39.686Z,11.16
2019-05-09T06:02:39.673Z,11.11
2019-05-09T06:03:39.667Z,11.17
2019-05-09T06:04:39.661Z,11.13
2019-05-09T06:05:39.674Z,11.24
2019-05-09T06:06:39.634Z,11.06
2019-05-09T06:07:39.619Z,11.16
2019-05-09T06:08:39.622Z,11.05
2019-05-09T06:09:39.604Z,11.17
2019-05-09T06:10:39.598Z,11.13
2019-05-09T06:11:39.579Z,11.16
2019-05-09T06:12:39.565Z,11.12
2019-05-09T06:13:53.267Z,11.11
2019-05-09T06:14:40.556Z,11.24
2019-05-09T06:15:39.553Z,11.26
2019-05-09T06:16:39.528Z,11.19
2019-05-09T06:17:39.555Z,11.23
2019-05-09T06:18:39.501Z,11.28
2019-05-09T06:19:39.492Z,11.35
2019-05-09T06:20:39.508Z,11.36
2019-05-09T06:21:39.495Z,11.39
2019-05-09T06:22:39.462Z,11.39
2019-05-09T06:23:39.468Z,11.41
2019-05-09T06:24:39.437Z,11.31
2019-05-09T06:25:39.439Z,11.36
2019-05-09T06:26:39.418Z,11.45
2019-05-09T06:27:42.187Z,11.46
2019-05-09T06:28:39.396Z,11.51
2019-05-09T06:29:39.397Z,11.53
2019-05-09T06:30:41.222Z,11.59
2019-05-09T06:31:39.367Z,11.62
2019-05-09T06:32:39.358Z,11.67
2019-05-09T06:33:46.500Z,11.63
2019-05-09T06:34:42.132Z,11.63
2019-05-09T06:35:39.337Z,11.62
2019-05-09T06:36:39.306Z,11.63
2019-05-09T06:37:39.296Z,11.54
2019-05-09T06:38:39.316Z,11.63
2019-05-09T06:39:39.291Z,11.56
2019-05-09T06:40:39.312Z,11.56
2019-05-09T06:41:39.254Z,11.59
2019-05-09T06:42:39.244Z,11.57
2019-05-09T06:43:39.616Z,11.60
2019-05-09T06:44:39.262Z,11.60
2019-05-09T06:45:41.691Z,11.57
2019-05-09T06:46:39.200Z,11.57
2019-05-09T06:47:39.205Z,11.49
2019-05-09T06:48:39.180Z,11.64
2019-05-09T06:49:39.171Z,11.59
2019-05-09T06:50:39.187Z,11.75
2019-05-09T06:51:39.149Z,11.75
2019-05-09T06:52:39.136Z,11.88
2019-05-09T06:53:39.125Z,11.88
2019-05-09T06:54:41.535Z,11.87
2019-05-09T06:55:39.104Z,12.00
2019-05-09T06:56:39.106Z,12.01
2019-05-09T06:57:42.816Z,12.13
2019-05-09T06:58:39.072Z,12.25
2019-05-09T06:59:39.070Z,12.36
2019-05-09T07:00:39.049Z,12.43
2019-05-09T07:01:39.052Z,12.52
2019-05-09T07:02:39.028Z,12.69
2019-05-09T07:03:39.020Z,12.74
2019-05-09T07:04:39.028Z,12.91
2019-05-09T07:05:39.006Z,12.89
2019-05-09T07:06:38.995Z,13.13
2019-05-09T07:07:38.972Z,13.14
2019-05-09T07:08:38.970Z,13.03
2019-05-09T07:09:38.967Z,13.10
2019-05-09T07:10:38.940Z,13.07
2019-05-09T07:11:38.979Z,13.07
2019-05-09T07:12:38.922Z,13.10
2019-05-09T07:13:38.923Z,13.10
2019-05-09T07:14:41.699Z,13.03
2019-05-09T07:15:38.887Z,13.13
2019-05-09T07:16:38.892Z,13.04
2019-05-09T07:17:38.936Z,13.03
2019-05-09T07:18:38.862Z,13.09
2019-05-09T07:19:38.844Z,13.19
2019-05-09T07:20:38.837Z,13.36
2019-05-09T07:21:38.832Z,13.39
2019-05-09T07:22:39.397Z,13.43
2019-05-09T07:23:38.800Z,13.48
2019-05-09T07:24:38.790Z,13.57
2019-05-09T07:25:38.778Z,13.53
2019-05-09T07:26:38.785Z,13.47
2019-05-09T07:27:39.204Z,13.62
2019-05-09T07:28:38.749Z,13.69
2019-05-09T07:29:38.738Z,13.68
2019-05-09T07:30:38.726Z,13.66
2019-05-09T07:31:38.732Z,13.71
2019-05-09T07:32:38.710Z,13.75
2019-05-09T07:33:38.703Z,13.80
2019-05-09T07:34:38.692Z,13.87
2019-05-09T07:35:38.674Z,13.87
2019-05-09T07:36:38.678Z,13.87
2019-05-09T07:37:38.661Z,13.88
2019-05-09T07:38:38.716Z,13.91
2019-05-09T07:39:38.628Z,13.81
2019-05-09T07:40:38.802Z,13.84
2019-05-09T07:41:38.632Z,13.72
2019-05-09T07:42:39.184Z,13.75
2019-05-09T07:43:38.761Z,13.71
2019-05-09T07:44:48.424Z,13.76
2019-05-09T07:45:39.570Z,13.79
2019-05-09T07:46:38.563Z,13.80
2019-05-09T07:47:38.897Z,13.80
2019-05-09T07:48:38.532Z,13.88
2019-05-09T07:49:38.520Z,13.91
2019-05-09T07:50:39.036Z,13.90
2019-05-09T07:51:38.497Z,13.93
2019-05-09T07:52:38.931Z,13.91
2019-05-09T07:53:38.476Z,13.86
2019-05-09T07:54:38.465Z,13.86
2019-05-09T07:55:38.457Z,13.90
2019-05-09T07:56:38.454Z,13.90
2019-05-09T07:57:46.380Z,13.90
2019-05-09T07:58:39.424Z,13.86
2019-05-09T07:59:39.033Z,13.81
2019-05-09T08:00:38.735Z,13.81
2019-05-09T08:01:38.608Z,13.83
2019-05-09T08:02:38.773Z,13.80
2019-05-09T08:03:38.674Z,13.73
2019-05-09T08:04:38.764Z,13.79
2019-05-09T08:05:38.704Z,13.84
2019-05-09T08:06:38.345Z,13.80
2019-05-09T08:07:38.397Z,13.76
2019-05-09T08:08:38.703Z,13.86
2019-05-09T08:09:38.900Z,13.93
2019-05-09T08:10:38.619Z,13.88
2019-05-09T08:11:38.282Z,14.02
2019-05-09T08:12:39.059Z,14.02
2019-05-09T08:13:39.173Z,14.09
2019-05-09T08:14:38.260Z,14.13
2019-05-09T08:15:38.529Z,14.17
2019-05-09T08:16:38.623Z,14.16
2019-05-09T08:17:38.398Z,14.13
2019-05-09T08:18:38.208Z,14.20
2019-05-09T08:19:38.242Z,14.21
2019-05-09T08:20:40.605Z,14.24
2019-05-09T08:21:38.481Z,14.30
2019-05-09T08:22:42.125Z,14.21
2019-05-09T08:23:39.149Z,14.21
2019-05-09T08:24:38.221Z,14.23
2019-05-09T08:25:38.424Z,14.29
2019-05-09T08:26:39.479Z,14.30
2019-05-09T08:27:38.123Z,14.24
2019-05-09T08:28:39.076Z,14.20
2019-05-09T08:29:38.859Z,14.13
2019-05-09T08:30:40.291Z,14.21
2019-05-09T08:31:40.313Z,14.19
2019-05-09T08:32:38.149Z,14.16
2019-05-09T08:33:38.393Z,14.16
2019-05-09T08:34:38.047Z,14.19
2019-05-09T08:35:38.452Z,14.31
2019-05-09T08:36:38.538Z,14.11
2019-05-09T08:37:39.107Z,14.21
2019-05-09T08:38:39.058Z,14.19
2019-05-09T08:39:38.446Z,14.11
2019-05-09T08:40:38.483Z,14.17
2019-05-09T08:41:38.613Z,14.21
2019-05-09T08:42:38.054Z,14.20
2019-05-09T08:43:37.945Z,14.17
2019-05-09T08:44:41.657Z,14.24
2019-05-09T08:45:38.412Z,14.19
2019-05-09T08:46:37.911Z,14.08
2019-05-09T08:47:38.243Z,14.02
2019-05-09T08:48:38.054Z,14.09
2019-05-09T08:49:37.870Z,14.05
2019-05-09T08:50:39.040Z,14.04
2019-05-09T08:51:50.736Z,13.98
2019-05-09T08:52:38.837Z,14.02
2019-05-09T08:53:38.155Z,13.91
2019-05-09T08:54:38.130Z,13.90
2019-05-09T08:55:38.471Z,13.79
2019-05-09T08:56:38.785Z,13.83
2019-05-09T08:57:37.787Z,13.84
2019-05-09T08:58:38.281Z,13.75
2019-05-09T08:59:38.399Z,13.75
2019-05-09T09:00:39.017Z,13.71
2019-05-09T09:01:54.409Z,13.72
2019-05-09T09:02:38.728Z,13.69
2019-05-09T09:03:37.930Z,13.66
2019-05-09T09:04:38.527Z,13.62
2019-05-09T09:05:38.275Z,13.66
2019-05-09T09:06:38.061Z,13.61
2019-05-09T09:07:38.036Z,13.59
2019-05-09T09:08:38.122Z,13.66
2019-05-09T09:09:38.039Z,13.61
2019-05-09T09:10:38.611Z,13.53
2019-05-09T09:11:38.537Z,13.54
2019-05-09T09:12:38.422Z,13.46
2019-05-09T09:13:37.960Z,13.44
2019-05-09T09:14:38.455Z,13.47
2019-05-09T09:15:58.058Z,13.44
2019-05-09T09:16:41.526Z,13.48
2019-05-09T09:17:38.595Z,13.62
2019-05-09T09:18:38.768Z,13.65
2019-05-09T09:19:38.594Z,13.59
2019-05-09T09:20:38.157Z,13.68
2019-05-09T09:21:38.831Z,13.86
2019-05-09T09:22:37.794Z,13.84
2019-05-09T09:23:44.137Z,13.91
2019-05-09T09:24:38.486Z,13.96
2019-05-09T09:25:39.119Z,14.04
2019-05-09T09:26:38.188Z,14.01
2019-05-09T09:27:38.035Z,14.04
2019-05-09T09:28:38.111Z,14.01
2019-05-09T09:29:38.180Z,14.01
2019-05-09T09:30:38.595Z,14.01
2019-05-09T09:31:37.894Z,14.09
2019-05-09T09:32:38.764Z,14.06
2019-05-09T09:33:37.817Z,14.13
2019-05-09T09:34:37.905Z,14.24
2019-05-09T09:35:38.298Z,14.35
2019-05-09T09:36:39.101Z,14.34
2019-05-09T09:37:45.942Z,14.30
2019-05-09T09:38:38.322Z,14.34
2019-05-09T09:39:44.544Z,14.35
2019-05-09T09:40:38.676Z,14.44
2019-05-09T09:41:38.572Z,14.41
2019-05-09T09:42:39.775Z,14.45
2019-05-09T09:43:38.332Z,14.59
2019-05-09T09:44:39.389Z,14.45
2019-05-09T09:45:37.952Z,14.46
2019-05-09T09:46:37.535Z,14.46
2019-05-09T09:47:39.349Z,14.31
2019-05-09T09:48:38.870Z,14.20
2019-05-09T09:49:38.459Z,14.17
2019-05-09T09:50:38.283Z,14.23
2019-05-09T09:51:38.206Z,14.31
2019-05-09T09:52:38.522Z,14.52
2019-05-09T09:53:38.565Z,14.54
2019-05-09T09:54:38.560Z,14.64
2019-05-09T09:55:38.461Z,14.64
2019-05-09T09:56:38.627Z,14.83
2019-05-09T09:57:37.758Z,14.79
2019-05-09T09:58:37.954Z,14.78
2019-05-09T09:59:38.592Z,14.61
2019-05-09T10:00:38.220Z,14.69
2019-05-09T10:01:38.529Z,14.60
2019-05-09T10:02:37.825Z,14.63
2019-05-09T10:03:37.054Z,14.79
2019-05-09T10:04:37.598Z,14.71
2019-05-09T10:05:38.093Z,14.85
2019-05-09T10:06:38.884Z,14.80
2019-05-09T10:07:38.421Z,14.98
2019-05-09T10:08:39.664Z,15.25
2019-05-09T10:09:36.989Z,15.43
2019-05-09T10:10:36.986Z,15.66
2019-05-09T10:11:36.973Z,15.68
2019-05-09T10:12:43.520Z,15.68
2019-05-09T10:13:37.944Z,15.67
2019-05-09T10:14:36.935Z,15.68
2019-05-09T10:15:38.418Z,15.76
2019-05-09T10:16:39.049Z,15.98
2019-05-09T10:17:38.671Z,15.86
2019-05-09T10:18:38.140Z,15.84
2019-05-09T10:19:38.364Z,15.86
2019-05-09T10:20:38.497Z,15.77
2019-05-09T10:21:38.243Z,15.64
2019-05-09T10:22:44.685Z,15.77
2019-05-09T10:23:38.018Z,16.22
2019-05-09T10:24:36.825Z,16.48
2019-05-09T10:25:38.251Z,16.48
2019-05-09T10:26:38.986Z,16.51
2019-05-09T10:27:38.729Z,16.48
2019-05-09T10:28:38.007Z,16.50
2019-05-09T10:29:38.776Z,16.52
2019-05-09T10:30:38.312Z,16.55
2019-05-09T10:31:39.156Z,16.54
2019-05-09T10:32:38.332Z,16.63
2019-05-09T10:33:37.513Z,16.98
2019-05-09T10:34:37.830Z,16.77
2019-05-09T10:35:38.983Z,16.80
2019-05-09T10:36:38.501Z,16.81
2019-05-09T10:37:39.201Z,16.70
2019-05-09T10:38:38.610Z,16.70
2019-05-09T10:39:38.095Z,16.80
2019-05-09T10:40:40.017Z,17.00
2019-05-09T10:41:37.629Z,17.09
2019-05-09T10:42:37.943Z,17.32
2019-05-09T10:43:39.054Z,17.39
2019-05-09T10:44:37.495Z,17.42
2019-05-09T10:45:40.715Z,17.47
2019-05-09T10:46:49.500Z,17.46
2019-05-09T10:47:37.841Z,17.68
2019-05-09T10:48:38.620Z,17.71
2019-05-09T10:49:37.944Z,17.83
2019-05-09T10:50:42.986Z,17.74
2019-05-09T10:51:37.533Z,17.80
2019-05-09T10:52:36.522Z,17.92
2019-05-09T10:53:36.512Z,18.20
2019-05-09T10:54:36.500Z,18.26
2019-05-09T10:55:38.496Z,18.29
2019-05-09T10:56:38.417Z,18.26
2019-05-09T10:57:41.648Z,18.36
2019-05-09T10:58:37.538Z,18.51
2019-05-09T10:59:37.683Z,18.65
2019-05-09T11:00:39.391Z,18.68
2019-05-09T11:01:38.103Z,18.65
2019-05-09T11:02:36.414Z,18.97
2019-05-09T11:03:37.654Z,19.01
2019-05-09T11:04:37.942Z,19.12
2019-05-09T11:05:36.383Z,19.30
2019-05-09T11:06:38.304Z,19.28
2019-05-09T11:07:38.121Z,19.31
2019-05-09T11:08:38.077Z,19.20
2019-05-09T11:09:38.904Z,18.79
2019-05-09T11:10:38.844Z,18.62
2019-05-09T11:11:36.346Z,18.53
2019-05-09T11:12:36.306Z,18.44
2019-05-09T11:13:38.789Z,18.49
2019-05-09T11:14:37.515Z,18.34
2019-05-09T11:15:37.551Z,18.28
2019-05-09T11:16:45.510Z,18.21
2019-05-09T11:17:38.957Z,17.99
2019-05-09T11:18:36.240Z,17.94
2019-05-09T11:19:36.232Z,17.80
2019-05-09T11:20:36.220Z,17.66
2019-05-09T11:21:38.895Z,17.53
2019-05-09T11:22:38.556Z,17.53
2019-05-09T11:23:36.188Z,17.57
2019-05-09T11:24:43.017Z,17.40
2019-05-09T11:25:38.024Z,17.40
2019-05-09T11:26:36.181Z,17.25
2019-05-09T11:27:38.753Z,17.00
2019-05-09T11:28:36.133Z,17.02
2019-05-09T11:29:38.728Z,16.85
2019-05-09T11:30:38.499Z,16.75
2019-05-09T11:31:38.372Z,16.67
2019-05-09T11:32:38.439Z,16.63
2019-05-09T11:33:38.573Z,16.52
2019-05-09T11:34:37.568Z,16.54
2019-05-09T11:35:38.097Z,16.41
2019-05-09T11:36:37.936Z,16.44
2019-05-09T11:37:38.309Z,16.30
2019-05-09T11:38:43.173Z,16.29
2019-05-09T11:39:41.967Z,16.07
2019-05-09T11:40:37.806Z,15.98
2019-05-09T11:41:38.370Z,15.91
2019-05-09T11:42:38.153Z,15.73
2019-05-09T11:43:38.798Z,15.56
2019-05-09T11:44:38.389Z,15.58
2019-05-09T11:45:35.952Z,15.49
2019-05-09T11:46:38.200Z,15.44
2019-05-09T11:47:42.596Z,15.40
2019-05-09T11:48:38.152Z,15.28
2019-05-09T11:49:35.907Z,15.28
2019-05-09T11:50:35.899Z,15.25
2019-05-09T11:51:35.889Z,15.13
2019-05-09T11:52:38.345Z,15.18
2019-05-09T11:53:35.864Z,15.15
2019-05-09T11:54:35.859Z,15.11
2019-05-09T11:55:42.336Z,15.09
2019-05-09T11:56:38.434Z,14.93
2019-05-09T11:57:38.193Z,14.98
2019-05-09T11:58:37.808Z,14.94
2019-05-09T11:59:37.922Z,14.87
2019-05-09T12:00:38.024Z,14.82
2019-05-09T12:01:35.785Z,14.72
2019-05-09T12:02:38.402Z,14.66
2019-05-09T12:03:35.768Z,14.72
2019-05-09T12:04:37.830Z,14.64
2019-05-09T12:05:37.914Z,14.52
2019-05-09T12:06:38.135Z,14.46
2019-05-09T12:07:37.904Z,14.38
2019-05-09T12:08:35.700Z,14.41
2019-05-09T12:09:38.369Z,14.26
2019-05-09T12:10:38.100Z,14.21
2019-05-09T12:11:39.161Z,14.27
2019-05-09T12:12:38.867Z,14.31
2019-05-09T12:13:37.831Z,14.36
2019-05-09T12:14:38.070Z,14.35
2019-05-09T12:15:38.769Z,14.38
2019-05-09T12:16:37.960Z,14.45
2019-05-09T12:17:50.878Z,14.54
2019-05-09T12:18:37.817Z,14.59
2019-05-09T12:19:38.022Z,14.69
2019-05-09T12:20:37.506Z,14.69
2019-05-09T12:21:44.778Z,14.63
2019-05-09T12:22:36.552Z,14.78
2019-05-09T12:23:37.779Z,14.80
2019-05-09T12:24:35.530Z,14.74
2019-05-09T12:25:35.525Z,14.85
2019-05-09T12:26:35.509Z,14.83
2019-05-09T12:27:35.521Z,14.69
2019-05-09T12:28:38.551Z,14.75
2019-05-09T12:29:35.474Z,14.78
2019-05-09T12:30:37.814Z,14.69
2019-05-09T12:31:35.465Z,14.79
2019-05-09T12:32:35.456Z,14.83
2019-05-09T12:33:35.440Z,14.80
2019-05-09T12:34:35.432Z,14.69
2019-05-09T12:35:38.329Z,14.64
2019-05-09T12:36:35.398Z,14.59
2019-05-09T12:37:37.692Z,14.61
2019-05-09T12:38:35.388Z,14.67
2019-05-09T12:39:37.721Z,14.64
2019-05-09T12:40:35.367Z,14.75
2019-05-09T12:41:35.346Z,14.82
2019-05-09T12:42:35.348Z,14.78
2019-05-09T12:43:35.337Z,14.80
2019-05-09T12:44:35.315Z,14.79
2019-05-09T12:45:35.302Z,14.86
2019-05-09T12:46:39.079Z,14.79
2019-05-09T12:47:35.280Z,14.93
2019-05-09T12:48:35.285Z,14.94
2019-05-09T12:49:35.261Z,15.05
2019-05-09T12:50:35.248Z,15.11
2019-05-09T12:51:37.046Z,15.15
2019-05-09T12:52:35.234Z,15.22
2019-05-09T12:53:35.236Z,15.31
2019-05-09T12:54:35.212Z,15.40
2019-05-09T12:55:35.197Z,15.48
2019-05-09T12:56:35.187Z,15.60
2019-05-09T12:57:35.172Z,15.67
2019-05-09T12:58:35.172Z,15.78
2019-05-09T12:59:46.417Z,15.76
2019-05-09T13:00:38.444Z,15.78